Latest Coastal Weather Observations for Tasman Island

IDT60701

Issued at 12:52 am EST Friday 24 May 2019 (issued every 10 minutes, with the page automatically refreshed every 10 minutes)

About coastal observations | Map of coastal stations | Coastal observations for TAS | Marine services | Other Formats
Station Details ID: 094155 Name: TASMAN ISLAND Lat: -43.24 Lon: 148.00 Height: 240.0 m
Data from the previous 72 hours. | See also: Recent months at Tasman Island
Date/Time
EST
Wind Sea
Height
m
Swell Vis
km
Cloud Weather Temp
°C
Press
hPa
Rain since
9am
mm
Dir  Spd
kts
Gust
kts
Height
m
Period
s
Dir
24/12:36am NW 15 26 - - - - - - - 12.2 1014.5 0.0
24/12:30am NW 15 25 - - - - - - - 12.1 1014.5 0.0
24/12:11am NW 16 26 - - - - - - - 11.9 1014.5 0.0
24/12:00am NW 20 26 - - - - - - - 12.2 1014.6 0.0
 
Date/Time
EST
Wind Sea
Height
m
Swell Vis
km
Cloud Weather Temp
°C
Press
hPa
Rain since
9am
mm
Dir  Spd
kts
Gust
kts
Height
m
Period
s
Dir
23/11:30pm NW 18 24 - - - - - - - 12.3 1014.7 0.0
23/11:00pm NW 19 25 - - - - - - - 12.4 1015.0 0.0
23/10:30pm NW 21 26 - - - - - - - 12.9 1015.1 0.0
23/10:00pm NNW 14 23 - - - - - - - 12.5 1015.3 0.0
23/09:30pm NW 16 24 - - - - - - - 12.9 1015.5 0.0
23/09:00pm NW 16 23 - - - - - - - 12.9 1015.4 0.0
23/08:59pm NW 16 26 - - - - - - - 13.0 1015.4 0.0
23/08:30pm NW 17 24 - - - - - - - 13.3 1015.5 0.0
23/08:00pm NW 15 22 - - - - - - - 13.2 1015.7 0.0
23/07:30pm NW 12 22 - - - - - - - 13.3 1016.0 0.0
23/07:00pm NW 8 13 - - - - - - - 12.9 1016.0 0.0
23/06:30pm NNW 4 6 - - - - - - - 12.3 1016.3 0.0
23/06:00pm NW 1 4 - - - - - - - 12.8 1016.3 0.0
23/05:30pm NW 9 14 - - - - - - - 13.4 1016.3 0.0
23/05:00pm NNW 7 10 - - - - - - - 12.3 1016.4 0.0
23/04:30pm NNW 7 11 - - - - - - - 12.6 1016.4 0.0
23/04:00pm NNW 10 13 - - - - - - - 12.9 1016.5 0.0
23/03:30pm NNW 11 16 - - - - - - - 13.4 1016.6 0.0
23/03:00pm NNW 11 18 - - - - - - - 13.0 1017.1 0.0
23/02:30pm N 10 15 - - - - - - - 13.1 1017.5 0.0
23/02:00pm NNW 8 13 - - - - - - - 14.4 1017.8 0.0
23/01:30pm N 9 18 - - - - - - - 14.1 1018.3 0.0
23/01:00pm N 10 16 - - - - - - - 13.8 1018.5 0.0
23/12:30pm NNW 11 17 - - - - - - - 13.8 1019.0 0.0
23/12:00pm N 11 16 - - - - - - - 13.4 1019.6 0.0
23/11:30am N 9 15 - - - - - - - 13.4 1020.3 0.0
23/11:00am NNW 15 21 - - - - - - - 12.7 1020.7 0.0
23/10:30am NNW 12 19 - - - - - - - 12.6 1021.1 0.0
23/10:00am NNW 14 21 - - - - - - - 12.3 1021.1 0.0
23/09:30am NNW 14 20 - - - - - - - 12.3 1021.1 0.0
23/09:00am NNW 14 19 - - - - - - - 11.7 1021.2 0.0
23/08:30am NNW 13 20 - - - - - - - 11.0 1021.4 0.0
23/08:00am NNW 12 18 - - - - - - - 10.7 1021.4 0.0
23/07:30am NNW 11 15 - - - - - - - 10.5 1021.3 0.0
23/07:00am NNW 13 19 - - - - - - - 10.4 1021.2 0.0
23/06:30am NNW 11 18 - - - - - - - 10.4 1021.2 0.0
23/06:00am NNW 14 21 - - - - - - - 10.6 1021.1 0.0
23/05:30am NNW 14 19 - - - - - - - 10.6 1021.0 0.0
23/05:00am NNW 13 20 - - - - - - - 10.5 1021.1 0.0
23/04:30am NNW 10 16 - - - - - - - 10.5 1021.3 0.0
23/04:00am NNW 11 16 - - - - - - - 10.8 1021.5 0.0
23/03:30am NW 9 14 - - - - - - - 11.0 1021.6 0.0
23/03:00am NW 12 18 - - - - - - - 10.8 1021.8 0.0
23/02:30am NW 13 23 - - - - - - - 11.0 1021.9 0.0
23/02:00am NW 13 20 - - - - - - - 11.6 1022.0 0.0
23/01:30am NW 12 22 - - - - - - - 11.6 1022.2 0.0
23/01:00am NNW 11 18 - - - - - - - 11.6 1022.5 0.0
23/12:30am NW 13 19 - - - - - - - 11.6 1022.6 0.0
23/12:00am NW 11 17 - - - - - - - 11.7 1022.9 0.0
 
Date/Time
EST
Wind Sea
Height
m
Swell Vis
km
Cloud Weather Temp
°C
Press
hPa
Rain since
9am
mm
Dir  Spd
kts
Gust
kts
Height
m
Period
s
Dir
22/11:30pm NW 14 20 - - - - - - - 12.0 1023.0 0.0
22/11:00pm NW 12 20 - - - - - - - 11.8 1023.2 0.0
22/10:30pm NW 13 20 - - - - - - - 11.9 1023.5 0.0
22/10:00pm NW 9 14 - - - - - - - 11.7 1023.7 0.0
22/09:30pm NW 7 9 - - - - - - - 11.6 1023.9 0.0
22/09:00pm WNW 5 8 - - - - - - - 11.6 1023.7 0.0
22/08:30pm W 4 5 - - - - - - - 11.6 1023.7 0.0
22/08:00pm WNW 3 7 - - - - - - - 12.2 1023.7 0.0
22/07:30pm WNW 4 8 - - - - - - - 12.5 1023.6 0.0
22/07:00pm NW 5 8 - - - - - - - 12.5 1023.5 0.0
22/06:30pm W 5 9 - - - - - - - 12.8 1023.4 0.0
22/06:00pm W 4 10 - - - - - - - 13.2 1023.2 0.0
22/05:30pm WNW 5 10 - - - - - - - 12.9 1022.9 0.0
22/05:00pm W 5 12 - - - - - - - 13.6 1022.7 0.0
22/04:30pm WNW 4 9 - - - - - - - 13.6 1022.5 0.0
22/04:00pm WNW 4 14 - - - - - - - 14.1 1022.1 0.0
22/03:30pm WNW 11 22 - - - - - - - 14.5 1021.8 0.0
22/03:00pm WNW 9 17 - - - - - - - 14.7 1021.9 0.0
22/02:30pm WNW 11 19 - - - - - - - 14.7 1021.8 0.0
22/02:00pm WNW 14 20 - - - - - - - 14.5 1021.7 0.0
22/01:30pm NW 17 23 - - - - - - - 14.5 1021.8 0.0
22/01:00pm NW 14 22 - - - - - - - 14.3 1022.0 0.0
22/12:30pm WNW 12 19 - - - - - - - 14.6 1022.1 0.0
22/12:00pm NW 11 18 - - - - - - - 14.9 1022.3 0.0
22/11:30am NW 11 17 - - - - - - - 14.7 1022.7 0.0
22/11:00am WNW 9 15 - - - - - - - 14.6 1022.9 0.0
22/10:30am WNW 12 18 - - - - - - - 13.9 1022.7 0.0
22/10:00am WNW 16 25 - - - - - - - 13.2 1022.6 0.0
22/09:30am NW 13 19 - - - - - - - 12.9 1022.5 0.0
22/09:00am WNW 13 20 - - - - - - - 12.9 1022.4 0.0
22/08:30am NW 9 13 - - - - - - - 12.9 1022.4 0.0
22/08:00am WNW 7 13 - - - - - - - 11.9 1021.9 0.0
22/07:30am SW 4 11 - - - - - - - 12.0 1021.9 0.0
22/07:00am W 5 13 - - - - - - - 12.0 1020.9 0.0
22/06:30am WNW 6 15 - - - - - - - 12.4 1020.5 0.0
22/06:00am WNW 8 16 - - - - - - - 12.2 1020.3 0.0
22/05:30am WNW 4 11 - - - - - - - 12.2 1019.9 0.0
22/05:00am NW 11 21 - - - - - - - 12.8 1019.5 0.0
22/04:30am WNW 11 17 - - - - - - - 13.1 1019.5 0.0
22/04:00am NW 9 14 - - - - - - - 13.1 1019.0 0.0
22/03:30am NNW 9 14 - - - - - - - 12.4 1018.9 0.0
22/03:00am NW 14 24 - - - - - - - 13.1 1018.7 0.0
22/02:30am NW 16 24 - - - - - - - 13.4 1018.6 0.0
22/02:00am NW 15 21 - - - - - - - 13.0 1018.3 0.0
22/01:30am NW 13 21 - - - - - - - 13.2 1018.3 0.0
22/01:00am NNW 11 20 - - - - - - - 12.9 1018.3 0.0
22/12:30am NNW 11 18 - - - - - - - 12.6 1018.3 0.0
22/12:00am NNW 17 25 - - - - - - - 12.9 1018.0 0.0
 
Date/Time
EST
Wind Sea
Height
m
Swell Vis
km
Cloud Weather Temp
°C
Press
hPa
Rain since
9am
mm
Dir  Spd
kts
Gust
kts
Height
m
Period
s
Dir
21/11:30pm NNW 15 20 - - - - - - - 13.0 1018.1 0.0
21/11:00pm NNW 14 21 - - - - - - - 12.9 1017.9 0.0
21/10:33pm NW 15 25 - - - - - - - 13.0 1018.0 0.0
21/10:30pm NW 15 24 - - - - - - - 13.0 1017.9 0.0
21/10:00pm NNW 11 18 - - - - - - - 13.0 1018.1 0.0
21/09:30pm NW 17 24 - - - - - - - 13.5 1017.9 0.0
21/09:00pm NW 18 25 - - - - - - - 13.6 1017.6 0.0
21/08:30pm NW 11 16 - - - - - - - 13.0 1017.6 0.0
21/08:00pm NW 16 23 - - - - - - - 13.2 1017.1 0.0
21/07:30pm NW 14 21 - - - - - - - 13.7 1017.1 0.0
21/07:00pm NW 20 26 - - - - - - - 14.2 1016.8 0.0
21/06:32pm NW 15 25 - - - - - - - 13.9 1016.5 0.0
21/06:30pm WNW 14 25 - - - - - - - 13.9 1016.5 0.0
21/06:00pm NW 13 18 - - - - - - - 13.4 1016.4 0.0
21/05:30pm NW 7 19 - - - - - - - 13.9 1016.2 0.0
21/05:00pm WNW 11 22 - - - - - - - 13.8 1015.7 0.0
21/04:30pm WNW 8 19 - - - - - - - 13.8 1015.4 0.0
21/04:00pm WSW 3 10 - - - - - - - 14.3 1015.4 0.0
21/03:30pm W 6 18 - - - - - - - 14.4 1014.7 0.0
21/03:17pm WNW 14 25 - - - - - - - 14.7 1014.7 0.0
21/03:00pm WNW 9 21 - - - - - - - 15.3 1014.5 0.0
21/02:30pm WNW 9 16 - - - - - - - 14.7 1014.5 0.0
21/02:00pm NW 6 12 - - - - - - - 15.3 1014.4 0.0
21/01:30pm NW 5 9 - - - - - - - 14.6 1014.6 0.0
21/01:00pm NW 9 13 - - - - - - - 14.7 1014.5 0.0
21/12:30pm WNW 9 15 - - - - - - - 13.7 1014.4 0.0
21/12:00pm NW 12 17 - - - - - - - 14.0 1014.5 0.0
21/11:30am NW 10 17 - - - - - - - 13.8 1014.7 0.0
21/11:00am NNW 8 13 - - - - - - - 13.2 1014.8 0.0
21/10:30am NW 10 14 - - - - - - - 13.1 1014.6 0.0
21/10:00am NW 8 13 - - - - - - - 13.3 1014.4 0.0
21/09:30am NW 12 17 - - - - - - - 13.4 1014.1 0.0
21/09:00am WNW 11 18 - - - - - - - 13.2 1013.9 0.6
21/08:30am WNW 8 14 - - - - - - - 13.2 1013.6 0.6
21/08:00am WNW 12 21 - - - - - - - 13.2 1013.1 0.6
21/07:30am WNW 13 23 - - - - - - - 13.2 1012.7 0.6
21/07:00am WNW 11 21 - - - - - - - 13.1 1012.2 0.6
21/06:41am WNW 15 26 - - - - - - - 13.0 1011.9 0.6
21/06:30am WNW 19 26 - - - - - - - 13.2 1011.9 0.6
21/06:00am WNW 16 25 - - - - - - - 13.2 1011.8 0.6
21/05:30am NW 17 25 - - - - - - - 13.4 1011.7 0.6
21/05:00am NW 20 26 - - - - - - - 13.8 1011.5 0.6
21/04:30am NW 20 26 - - - - - - - 14.0 1010.8 0.6
21/04:00am NW 19 26 - - - - - - - 14.1 1010.7 0.6
21/03:52am NW 20 26 - - - - - - - 13.7 1010.7 0.6
21/03:30am NNW 15 23 - - - - - - - 12.7 1010.8 0.6
21/03:00am N 16 22 - - - - - - - 12.5 1011.0 0.6
21/02:30am N 16 23 - - - - - - - 12.5 1011.2 0.6
21/02:00am N 15 19 - - - - - - - 12.5 1011.4 0.6
21/01:30am N 13 18 - - - - - - - 12.3 1011.7 0.6
21/01:00am N 14 19 - - - - - - - 12.6 1012.0 0.6

Other formats

Comma delimited format used in spreadsheet applications
http://www.bom.gov.au/fwo/IDT60701/IDT60701.95986.axf

JavaScript Object Notation format (JSON) in row-major order
http://www.bom.gov.au/fwo/IDT60701/IDT60701.95986.json

Data quality

Most of these data are generated automatically and are frequently updated. Quality checks on data are not normally performed. It is possible for incorrect values to appear. Refer to information at About Latest Weather Observations and please check the disclaimer before using these data.